Venia, Virginia
Current Conditions -  °F | °C
As of 12:15 PM on Friday 19 Dec 2014 (Local Time) from KJFZ Reporting Station
Clear Clear  
Wind Chill: 35°   Ceiling: Unl
Heat Index: 35°   Visibility: 10mi
Dew Point: 21°   Wind: 3mph
Humidity: 57%   Direction: 260°W
Pressure: 30.14"   Gusts: NA
Location:  37.0328°N, 82.0042°W
Report Text: KJFZ 191715Z AUTO 26003KT 10SM CLR 02/M06 A3014 RMK AO2 T00151061
Loading
Personal Weather Stations






























Interactive Weather Map New forecast layout! Learn more

10-Day Weather Forecast

Advertisements
Track Severe Weather on mobile